createdAt,value
2022-10-18T00:01:09.084Z,16.65
2022-10-18T00:06:14.583Z,16.58
2022-10-18T00:08:42.581Z,16.52
2022-10-18T00:11:12.264Z,16.52
2022-10-18T00:13:41.340Z,16.42
2022-10-18T00:16:13.460Z,16.28
2022-10-18T00:18:42.074Z,16.19
2022-10-18T00:21:22.532Z,16.20
2022-10-18T00:23:51.912Z,16.16
2022-10-18T00:26:21.315Z,16.13
2022-10-18T00:28:57.257Z,16.10
2022-10-18T00:31:27.898Z,16.07
2022-10-18T00:33:58.547Z,16.05
2022-10-18T00:36:28.421Z,16.01
2022-10-18T00:38:57.130Z,16.00
2022-10-18T00:41:27.770Z,15.97
2022-10-18T00:44:07.530Z,15.94
2022-10-18T00:46:37.773Z,15.92
2022-10-18T00:49:13.568Z,15.89
2022-10-18T00:51:46.947Z,15.86
2022-10-18T00:54:17.672Z,15.83
2022-10-18T00:56:46.469Z,15.85
2022-10-18T00:59:17.255Z,15.81
2022-10-18T01:01:45.759Z,15.76
2022-10-18T01:04:15.678Z,15.68
2022-10-18T01:07:02.799Z,15.61
2022-10-18T01:09:56.146Z,15.58
2022-10-18T01:12:42.413Z,15.61
2022-10-18T01:15:13.312Z,15.62
2022-10-18T01:17:47.347Z,15.60
2022-10-18T01:20:34.153Z,15.58
2022-10-18T01:23:17.781Z,15.59
2022-10-18T01:26:16.278Z,15.60
2022-10-18T01:29:09.279Z,15.62
2022-10-18T01:31:45.435Z,15.62
2022-10-18T01:34:17.013Z,15.61
2022-10-18T01:36:49.879Z,15.72
2022-10-18T01:39:26.637Z,15.70
2022-10-18T01:41:58.513Z,15.57
2022-10-18T01:44:29.946Z,15.48
2022-10-18T01:46:59.690Z,15.47
2022-10-18T01:49:27.777Z,15.48
2022-10-18T01:51:55.888Z,15.43
2022-10-18T01:54:34.668Z,15.34
2022-10-18T01:57:21.189Z,15.36
2022-10-18T01:59:56.833Z,15.27
2022-10-18T02:02:26.319Z,15.28
2022-10-18T02:05:10.327Z,15.21
2022-10-18T02:08:12.548Z,15.14
2022-10-18T02:10:51.762Z,15.33
2022-10-18T02:13:22.684Z,15.26
2022-10-18T02:15:56.682Z,15.33
2022-10-18T02:18:33.429Z,15.49
2022-10-18T02:21:05.680Z,15.64
2022-10-18T02:23:34.197Z,15.72
2022-10-18T02:26:02.590Z,15.76
2022-10-18T02:28:31.399Z,15.82
2022-10-18T02:31:10.189Z,15.88
2022-10-18T02:33:52.858Z,15.94
2022-10-18T02:37:02.977Z,15.94
2022-10-18T02:39:37.650Z,15.95
2022-10-18T02:42:07.237Z,15.98
2022-10-18T02:44:36.631Z,16.06
2022-10-18T02:47:08.489Z,16.33
2022-10-18T02:49:36.813Z,16.67
2022-10-18T02:52:04.901Z,16.92
2022-10-18T02:54:32.894Z,17.10
2022-10-18T02:57:00.984Z,17.20
2022-10-18T02:59:28.980Z,17.20
2022-10-18T03:01:57.188Z,17.11
2022-10-18T03:04:25.405Z,16.98
2022-10-18T03:06:54.009Z,16.90
2022-10-18T03:09:22.022Z,17.03
2022-10-18T03:11:50.041Z,17.14
2022-10-18T03:14:18.173Z,17.18
2022-10-18T03:16:46.214Z,17.19
2022-10-18T03:19:14.479Z,17.30
2022-10-18T03:21:42.681Z,17.33
2022-10-18T03:24:10.623Z,17.24
2022-10-18T03:26:38.610Z,17.12
2022-10-18T03:29:06.632Z,16.99
2022-10-18T03:31:34.630Z,16.83
2022-10-18T03:34:03.148Z,16.72
2022-10-18T03:36:31.214Z,16.63
2022-10-18T03:38:59.305Z,16.55
2022-10-18T03:41:28.019Z,16.49
2022-10-18T03:43:56.032Z,16.44
2022-10-18T03:46:24.010Z,16.39
2022-10-18T03:48:52.100Z,16.33
2022-10-18T03:51:20.097Z,16.31
2022-10-18T03:53:48.084Z,16.28
2022-10-18T03:56:16.122Z,16.24
2022-10-18T03:58:44.415Z,16.21
2022-10-18T04:01:13.337Z,16.21
2022-10-18T04:03:41.719Z,16.21
2022-10-18T04:06:10.123Z,16.22
2022-10-18T04:08:38.695Z,16.21
2022-10-18T04:11:12.222Z,16.21
2022-10-18T04:13:40.260Z,16.20
2022-10-18T04:16:08.393Z,16.19
2022-10-18T04:18:36.534Z,16.17
2022-10-18T04:21:04.699Z,16.14
2022-10-18T04:23:35.105Z,16.12
2022-10-18T04:26:07.306Z,16.08
2022-10-18T04:28:40.380Z,16.04
2022-10-18T04:31:09.718Z,15.97
2022-10-18T04:33:38.657Z,15.91
2022-10-18T04:36:07.109Z,15.86
2022-10-18T04:38:35.666Z,15.81
2022-10-18T04:41:03.974Z,15.75
2022-10-18T04:43:33.047Z,15.69
2022-10-18T04:46:02.117Z,15.65
2022-10-18T04:48:31.508Z,15.59
2022-10-18T04:50:59.944Z,15.52
2022-10-18T04:53:28.124Z,15.47
2022-10-18T04:55:56.494Z,15.44
2022-10-18T04:58:24.937Z,15.43
2022-10-18T05:00:53.768Z,15.41
2022-10-18T05:03:22.033Z,15.37
2022-10-18T05:06:01.410Z,15.33
2022-10-18T05:08:33.094Z,15.30
2022-10-18T05:11:02.136Z,15.28
2022-10-18T05:13:31.217Z,15.26
2022-10-18T05:16:00.529Z,15.22
2022-10-18T05:18:28.925Z,15.16
2022-10-18T05:20:57.629Z,15.15
2022-10-18T05:23:26.238Z,15.26
2022-10-18T05:25:54.916Z,15.36
2022-10-18T05:28:41.041Z,15.45
2022-10-18T05:31:12.379Z,15.56
2022-10-18T05:33:40.595Z,15.59
2022-10-18T05:36:10.014Z,15.58
2022-10-18T05:38:40.326Z,15.62
2022-10-18T05:41:08.851Z,15.62
2022-10-18T05:43:38.292Z,15.69
2022-10-18T05:46:14.747Z,15.75
2022-10-18T05:48:45.597Z,15.82
2022-10-18T05:51:14.396Z,15.83
2022-10-18T05:53:42.724Z,15.83
2022-10-18T05:56:15.057Z,15.82
2022-10-18T05:58:43.803Z,15.73
2022-10-18T06:01:12.328Z,15.57
2022-10-18T06:03:41.785Z,15.46
2022-10-18T06:06:12.553Z,15.35
2022-10-18T06:08:44.348Z,15.24
2022-10-18T06:11:20.535Z,15.21
2022-10-18T06:13:50.667Z,15.17
2022-10-18T06:16:22.683Z,15.17
2022-10-18T06:18:55.563Z,15.15
2022-10-18T06:21:25.451Z,15.06
2022-10-18T06:23:56.772Z,14.97
2022-10-18T06:26:27.424Z,14.75
2022-10-18T06:28:56.933Z,14.59
2022-10-18T06:31:26.190Z,14.53
2022-10-18T06:33:58.334Z,14.61
2022-10-18T06:36:29.009Z,14.55
2022-10-18T06:38:58.110Z,14.50
2022-10-18T06:41:27.003Z,14.52
2022-10-18T06:43:57.986Z,14.97
2022-10-18T06:46:27.427Z,15.33
2022-10-18T06:48:58.128Z,15.34
2022-10-18T06:51:26.798Z,15.46
2022-10-18T06:54:13.045Z,15.53
2022-10-18T06:56:43.539Z,15.46
2022-10-18T06:59:12.047Z,15.62
2022-10-18T07:01:40.850Z,15.91
2022-10-18T07:04:10.180Z,16.10
2022-10-18T07:06:39.182Z,16.40
2022-10-18T07:09:07.663Z,16.48
2022-10-18T07:11:36.256Z,16.53
2022-10-18T07:14:05.560Z,16.65
2022-10-18T07:16:35.431Z,16.85
2022-10-18T07:19:09.346Z,16.95
2022-10-18T07:21:39.677Z,17.01
2022-10-18T07:24:09.344Z,17.03
2022-10-18T07:26:38.965Z,17.11
2022-10-18T07:29:12.436Z,17.23
2022-10-18T07:31:41.936Z,17.29
2022-10-18T07:34:14.581Z,17.37
2022-10-18T07:36:43.273Z,17.38
2022-10-18T07:39:12.372Z,17.39
2022-10-18T07:41:43.794Z,17.37
2022-10-18T07:44:12.577Z,17.56
2022-10-18T07:46:42.445Z,17.78
2022-10-18T07:49:12.658Z,18.02
2022-10-18T07:51:43.627Z,18.25
2022-10-18T07:54:12.587Z,18.46
2022-10-18T07:56:41.583Z,18.72
2022-10-18T07:59:11.364Z,18.90
2022-10-18T08:01:41.032Z,19.00
2022-10-18T08:04:16.079Z,19.11
2022-10-18T08:06:46.711Z,19.24
2022-10-18T08:09:16.611Z,19.34
2022-10-18T08:11:45.935Z,19.41
2022-10-18T08:14:16.226Z,19.23
2022-10-18T08:16:46.143Z,19.04
2022-10-18T08:19:15.856Z,18.92
2022-10-18T08:21:44.811Z,18.84
2022-10-18T08:24:14.270Z,18.79
2022-10-18T08:26:44.263Z,18.77
2022-10-18T08:29:31.891Z,18.84
2022-10-18T08:32:02.862Z,19.19
2022-10-18T08:34:32.690Z,19.51
2022-10-18T08:37:02.515Z,19.82
2022-10-18T08:39:32.019Z,20.01
2022-10-18T08:42:21.386Z,19.95
2022-10-18T08:44:53.466Z,19.85
2022-10-18T08:47:35.409Z,19.80
2022-10-18T08:50:28.342Z,19.76
2022-10-18T08:53:08.073Z,19.75
2022-10-18T08:55:43.688Z,19.74
2022-10-18T08:58:18.853Z,19.72
2022-10-18T09:01:29.735Z,19.74
2022-10-18T09:04:10.110Z,19.82
2022-10-18T09:06:51.274Z,19.88
2022-10-18T09:09:23.741Z,19.95
2022-10-18T09:12:21.309Z,20.00
2022-10-18T09:15:11.875Z,20.07
2022-10-18T09:18:03.907Z,20.14
2022-10-18T09:20:35.734Z,20.18
2022-10-18T09:23:20.131Z,20.21
2022-10-18T09:26:02.365Z,20.27
2022-10-18T09:28:46.730Z,20.36
2022-10-18T09:31:26.665Z,20.47
2022-10-18T09:34:14.625Z,20.57
2022-10-18T09:36:45.846Z,20.68
2022-10-18T09:39:21.102Z,20.75
2022-10-18T09:41:58.335Z,20.83
2022-10-18T09:44:44.887Z,20.92
2022-10-18T09:47:17.210Z,21.04
2022-10-18T09:49:51.462Z,21.12
2022-10-18T09:52:28.006Z,21.17
2022-10-18T09:55:02.933Z,21.21
2022-10-18T09:57:42.609Z,21.24
2022-10-18T10:00:21.511Z,21.29
2022-10-18T10:02:50.164Z,21.36
2022-10-18T10:05:19.545Z,21.41
2022-10-18T10:07:49.543Z,21.46
2022-10-18T10:10:26.412Z,21.52
2022-10-18T10:13:17.958Z,21.60
2022-10-18T10:16:00.545Z,21.69
2022-10-18T10:18:35.259Z,21.75
2022-10-18T10:21:07.852Z,21.80
2022-10-18T10:23:40.506Z,21.84
2022-10-18T10:26:24.370Z,21.89
2022-10-18T10:28:52.813Z,21.96
2022-10-18T10:31:31.814Z,22.01
2022-10-18T10:34:19.347Z,22.04
2022-10-18T10:36:51.030Z,22.04
2022-10-18T10:39:22.690Z,22.03
2022-10-18T10:41:58.385Z,22.04
2022-10-18T10:44:33.056Z,22.04
2022-10-18T10:47:02.455Z,22.00
2022-10-18T10:49:46.247Z,21.95
2022-10-18T10:52:28.837Z,21.92
2022-10-18T10:55:06.146Z,21.88
2022-10-18T10:57:49.917Z,21.87
2022-10-18T11:00:45.841Z,21.86
2022-10-18T11:03:33.812Z,21.85
2022-10-18T11:06:02.454Z,21.82
2022-10-18T11:11:27.999Z,21.80
2022-10-18T11:14:27.108Z,21.77
2022-10-18T11:17:40.561Z,21.76
2022-10-18T11:20:27.892Z,21.76
2022-10-18T11:22:56.543Z,21.74
2022-10-18T11:25:50.186Z,21.71
2022-10-18T11:28:35.505Z,21.69
2022-10-18T11:31:17.955Z,21.69
2022-10-18T11:34:13.179Z,21.68
2022-10-18T11:36:54.598Z,21.67
2022-10-18T11:39:43.282Z,21.70
2022-10-18T11:42:20.385Z,21.74
2022-10-18T11:45:04.360Z,21.78
2022-10-18T11:47:39.443Z,21.80
2022-10-18T11:50:41.961Z,21.82
2022-10-18T11:53:35.042Z,21.82
2022-10-18T11:56:22.028Z,21.80
2022-10-18T11:59:05.818Z,21.81
2022-10-18T12:01:50.139Z,21.86
2022-10-18T12:05:22.180Z,21.92
2022-10-18T12:07:52.309Z,21.94
2022-10-18T12:10:37.755Z,21.93
2022-10-18T12:13:24.028Z,21.90
2022-10-18T12:15:52.850Z,21.88
2022-10-18T12:18:26.044Z,21.85
2022-10-18T12:21:00.666Z,21.82
2022-10-18T12:23:35.181Z,21.80
2022-10-18T12:26:06.699Z,21.77
2022-10-18T12:28:59.300Z,21.72
2022-10-18T12:31:42.942Z,21.64
2022-10-18T12:34:27.019Z,21.55
2022-10-18T12:37:23.015Z,21.48
2022-10-18T12:40:21.483Z,21.42
2022-10-18T12:42:57.236Z,21.39
2022-10-18T12:45:33.614Z,21.37
2022-10-18T12:48:08.004Z,21.35
2022-10-18T12:50:45.639Z,21.36
2022-10-18T12:53:26.545Z,21.38
2022-10-18T12:55:56.512Z,21.41
2022-10-18T12:58:31.152Z,21.47
2022-10-18T13:01:08.245Z,21.58
2022-10-18T13:03:55.750Z,21.68
2022-10-18T13:06:32.800Z,21.78
2022-10-18T13:09:18.623Z,21.88
2022-10-18T13:11:47.539Z,21.95
2022-10-18T13:14:29.334Z,21.97
2022-10-18T13:17:21.849Z,22.00
2022-10-18T13:20:25.915Z,22.04
2022-10-18T13:23:35.445Z,22.10
2022-10-18T13:26:26.946Z,22.13
2022-10-18T13:29:09.734Z,22.13
2022-10-18T13:31:49.490Z,22.12
2022-10-18T13:34:23.088Z,22.09
2022-10-18T13:37:03.608Z,22.01
2022-10-18T13:39:35.475Z,21.93
2022-10-18T13:42:40.283Z,21.82
2022-10-18T13:45:32.000Z,21.68
2022-10-18T13:48:31.264Z,21.57
2022-10-18T13:51:27.874Z,21.40
2022-10-18T13:54:14.438Z,21.14
2022-10-18T13:56:50.023Z,20.93
2022-10-18T13:59:31.148Z,20.76
2022-10-18T14:02:50.923Z,20.57
2022-10-18T14:05:28.846Z,20.36
2022-10-18T14:08:08.149Z,20.33
2022-10-18T14:11:01.854Z,20.29
2022-10-18T14:13:39.841Z,20.10
2022-10-18T14:16:35.304Z,19.86
2022-10-18T14:19:25.479Z,19.50
2022-10-18T14:22:11.822Z,19.24
2022-10-18T14:24:46.724Z,19.04
2022-10-18T14:27:23.364Z,18.83
2022-10-18T14:30:21.759Z,18.67
2022-10-18T14:32:54.752Z,18.52
2022-10-18T14:35:32.945Z,18.24
2022-10-18T14:38:06.852Z,17.89
2022-10-18T14:40:43.729Z,17.63
2022-10-18T14:43:24.764Z,17.41
2022-10-18T14:46:17.363Z,17.15
2022-10-18T14:48:54.610Z,16.88
2022-10-18T14:51:31.070Z,16.68
2022-10-18T14:54:03.686Z,16.56
2022-10-18T14:56:44.078Z,16.50
2022-10-18T14:59:25.011Z,16.32
2022-10-18T15:02:03.500Z,16.15
2022-10-18T15:04:34.020Z,16.11
2022-10-18T15:07:06.124Z,16.02
2022-10-18T15:09:37.317Z,15.89
2022-10-18T15:12:10.983Z,15.78
2022-10-18T15:14:42.592Z,15.71
2022-10-18T15:17:27.224Z,15.68
2022-10-18T15:20:06.312Z,16.53
2022-10-18T15:22:35.577Z,17.45
2022-10-18T15:25:10.065Z,18.15
2022-10-18T15:30:18.230Z,19.01
2022-10-18T15:32:55.137Z,18.97
2022-10-18T15:35:28.717Z,19.01
2022-10-18T15:38:11.209Z,19.07
2022-10-18T15:40:54.524Z,19.06
2022-10-18T15:43:40.487Z,19.48
2022-10-18T15:46:33.455Z,19.89
2022-10-18T15:49:25.940Z,20.15
2022-10-18T15:52:14.555Z,20.18
2022-10-18T15:54:46.174Z,20.18
2022-10-18T15:57:23.418Z,20.20
2022-10-18T16:00:16.273Z,20.32
2022-10-18T16:02:55.921Z,20.64
2022-10-18T16:05:46.999Z,20.77
2022-10-18T16:08:37.308Z,20.92
2022-10-18T16:11:23.565Z,20.98
2022-10-18T16:14:00.399Z,21.01
2022-10-18T16:16:35.154Z,21.00
2022-10-18T16:19:27.144Z,20.94
2022-10-18T16:22:06.842Z,20.91
2022-10-18T16:24:42.563Z,21.06
2022-10-18T16:27:25.232Z,21.05
2022-10-18T16:30:03.485Z,21.16
2022-10-18T16:32:43.615Z,21.23
2022-10-18T16:35:17.352Z,21.17
2022-10-18T16:37:52.006Z,20.29
2022-10-18T16:40:24.287Z,19.57
2022-10-18T16:42:54.007Z,19.84
2022-10-18T16:45:27.294Z,19.94
2022-10-18T16:48:01.599Z,19.75
2022-10-18T16:50:35.493Z,19.81
2022-10-18T16:53:06.726Z,19.84
2022-10-18T16:55:38.008Z,20.04
2022-10-18T16:58:09.858Z,20.05
2022-10-18T17:00:42.090Z,20.11
2022-10-18T17:03:10.941Z,20.12
2022-10-18T17:05:42.914Z,20.39
2022-10-18T17:08:26.315Z,20.41
2022-10-18T17:10:59.475Z,20.29
2022-10-18T17:13:32.744Z,20.22
2022-10-18T17:16:08.070Z,20.14
2022-10-18T17:19:03.032Z,20.15
2022-10-18T17:21:38.231Z,20.13
2022-10-18T17:24:13.066Z,20.17
2022-10-18T17:26:44.308Z,20.13
2022-10-18T17:29:13.264Z,20.03
2022-10-18T17:31:42.427Z,19.96
2022-10-18T17:34:12.171Z,19.85
2022-10-18T17:36:42.013Z,19.60
2022-10-18T17:39:12.886Z,19.61
2022-10-18T17:41:42.222Z,19.65
2022-10-18T17:44:10.902Z,19.82
2022-10-18T17:46:39.676Z,20.10
2022-10-18T17:49:09.711Z,20.33
2022-10-18T17:51:44.723Z,20.45
2022-10-18T17:54:14.747Z,20.63
2022-10-18T17:56:45.663Z,20.67
2022-10-18T17:59:15.678Z,20.69
2022-10-18T18:01:54.087Z,20.60
2022-10-18T18:04:32.150Z,20.41
2022-10-18T18:07:09.049Z,20.13
2022-10-18T18:09:47.207Z,19.89
2022-10-18T18:12:16.766Z,19.94
2022-10-18T18:14:50.165Z,19.64
2022-10-18T18:17:33.672Z,19.54
2022-10-18T18:20:09.113Z,19.53
2022-10-18T18:22:42.898Z,19.57
2022-10-18T18:25:17.420Z,19.49
2022-10-18T18:27:56.839Z,19.62
2022-10-18T18:30:27.212Z,19.91
2022-10-18T18:32:59.112Z,19.83
2022-10-18T18:35:29.800Z,19.79
2022-10-18T18:40:36.059Z,20.35
2022-10-18T18:43:22.827Z,20.44
2022-10-18T18:45:54.408Z,20.45
2022-10-18T18:48:27.172Z,20.46
2022-10-18T18:50:57.855Z,20.41
2022-10-18T18:53:32.009Z,20.53
2022-10-18T18:56:13.175Z,20.68
2022-10-18T18:58:49.120Z,20.58
2022-10-18T19:01:22.668Z,20.24
2022-10-18T19:03:54.170Z,19.88
2022-10-18T19:06:37.497Z,19.67
2022-10-18T19:09:19.558Z,19.53
2022-10-18T19:11:56.587Z,19.44
2022-10-18T19:14:26.217Z,19.36
2022-10-18T19:17:02.335Z,19.31
2022-10-18T19:19:31.866Z,19.18
2022-10-18T19:22:04.834Z,19.17
2022-10-18T19:24:35.626Z,19.14
2022-10-18T19:27:14.037Z,19.13
2022-10-18T19:29:46.278Z,19.07
2022-10-18T19:32:17.260Z,19.05
2022-10-18T19:34:46.515Z,19.00
2022-10-18T19:37:16.548Z,18.95
2022-10-18T19:39:47.282Z,18.96
2022-10-18T19:42:22.621Z,19.08
2022-10-18T19:44:56.317Z,19.10
2022-10-18T19:47:26.199Z,19.14
2022-10-18T19:49:55.595Z,19.46
2022-10-18T19:52:24.279Z,19.61
2022-10-18T19:54:54.112Z,19.69
2022-10-18T19:57:24.842Z,19.82
2022-10-18T20:00:00.728Z,19.97
2022-10-18T20:02:41.013Z,20.08
2022-10-18T20:05:11.079Z,20.18
2022-10-18T20:07:41.820Z,20.31
2022-10-18T20:10:10.719Z,20.38
2022-10-18T20:12:39.741Z,20.41
2022-10-18T20:15:10.223Z,20.40
2022-10-18T20:17:42.431Z,20.39
2022-10-18T20:20:14.621Z,20.39
2022-10-18T20:22:46.478Z,20.41
2022-10-18T20:25:17.805Z,20.48
2022-10-18T20:28:01.915Z,20.49
2022-10-18T20:30:41.884Z,20.52
2022-10-18T20:33:18.658Z,20.60
2022-10-18T20:35:52.441Z,20.69
2022-10-18T20:38:40.645Z,20.68
2022-10-18T20:41:15.195Z,20.62
2022-10-18T20:43:51.539Z,20.62
2022-10-18T20:46:24.397Z,20.69
2022-10-18T20:48:58.190Z,20.83
2022-10-18T20:51:30.608Z,20.77
2022-10-18T20:56:42.134Z,20.59
2022-10-18T20:59:13.579Z,20.56
2022-10-18T21:01:47.852Z,20.54
2022-10-18T21:04:19.172Z,20.45
2022-10-18T21:06:53.482Z,20.30
2022-10-18T21:09:23.870Z,20.21
2022-10-18T21:11:56.434Z,20.15
2022-10-18T21:14:27.591Z,20.11
2022-10-18T21:17:00.015Z,20.28
2022-10-18T21:19:37.066Z,20.23
2022-10-18T21:22:06.729Z,19.85
2022-10-18T21:24:37.157Z,19.58
2022-10-18T21:27:07.025Z,19.37
2022-10-18T21:29:37.435Z,19.17
2022-10-18T21:32:07.794Z,19.04
2022-10-18T21:34:36.364Z,18.97
2022-10-18T21:37:04.781Z,18.95
2022-10-18T21:39:33.462Z,19.17
2022-10-18T21:42:02.792Z,19.30
2022-10-18T21:44:32.443Z,19.12
2022-10-18T21:47:02.646Z,18.81
2022-10-18T21:49:36.835Z,19.23
2022-10-18T21:52:08.246Z,19.84
2022-10-18T21:54:37.024Z,20.00
2022-10-18T21:57:05.575Z,19.93
2022-10-18T21:59:34.037Z,19.79
2022-10-18T22:02:03.097Z,19.63
2022-10-18T22:04:35.887Z,19.48
2022-10-18T22:07:05.239Z,19.46
2022-10-18T22:09:33.979Z,19.49
2022-10-18T22:12:05.783Z,19.44
2022-10-18T22:14:35.435Z,19.19
2022-10-18T22:17:05.037Z,19.16
2022-10-18T22:19:34.616Z,19.02
2022-10-18T22:22:04.418Z,18.81
2022-10-18T22:27:05.385Z,18.39
2022-10-18T22:29:34.212Z,18.22
2022-10-18T22:32:03.355Z,18.61
2022-10-18T22:34:31.913Z,18.89
2022-10-18T22:37:01.665Z,19.20
2022-10-18T22:39:30.873Z,19.16
2022-10-18T22:41:59.612Z,19.06
2022-10-18T22:44:30.123Z,19.02
2022-10-18T22:46:59.184Z,18.92
2022-10-18T22:49:27.992Z,18.83
2022-10-18T22:51:56.279Z,18.65
2022-10-18T22:54:24.677Z,18.55
2022-10-18T22:56:53.103Z,18.58
2022-10-18T22:59:21.523Z,18.60
2022-10-18T23:01:49.784Z,18.46
2022-10-18T23:04:18.453Z,18.25
2022-10-18T23:06:46.932Z,18.13
2022-10-18T23:09:16.648Z,18.29
2022-10-18T23:11:44.959Z,18.30
2022-10-18T23:14:13.183Z,18.32
2022-10-18T23:16:41.427Z,18.62
2022-10-18T23:19:16.175Z,18.91
2022-10-18T23:21:45.358Z,18.79
2022-10-18T23:24:14.141Z,18.70
2022-10-18T23:26:43.437Z,18.87
2022-10-18T23:29:12.735Z,19.13
2022-10-18T23:31:41.911Z,19.27
2022-10-18T23:34:11.921Z,19.19
2022-10-18T23:36:40.860Z,19.04
2022-10-18T23:39:10.380Z,19.07
2022-10-18T23:41:38.624Z,19.08
2022-10-18T23:44:09.167Z,19.14
2022-10-18T23:46:37.560Z,19.06
2022-10-18T23:49:05.930Z,18.87
2022-10-18T23:51:34.701Z,18.84
2022-10-18T23:54:03.102Z,18.84
2022-10-18T23:56:31.788Z,18.80
2022-10-18T23:59:00.597Z,18.93
